createdAt,value
2023-03-17T00:00:47.040Z,55.61
2023-03-17T00:03:25.631Z,55.58
2023-03-17T00:05:55.053Z,55.25
2023-03-17T00:08:27.297Z,55.07
2023-03-17T00:10:55.892Z,55.24
2023-03-17T00:13:23.557Z,55.06
2023-03-17T00:15:56.481Z,54.96
2023-03-17T00:18:24.658Z,55.14
2023-03-17T00:20:52.382Z,55.42
2023-03-17T00:23:23.827Z,55.56
2023-03-17T00:25:52.918Z,55.61
2023-03-17T00:28:25.003Z,55.66
2023-03-17T00:30:59.197Z,55.66
2023-03-17T00:33:32.526Z,55.58
2023-03-17T00:36:00.761Z,55.47
2023-03-17T00:38:29.113Z,55.46
2023-03-17T00:40:58.884Z,55.80
2023-03-17T00:43:26.912Z,55.74
2023-03-17T00:45:54.831Z,56.06
2023-03-17T00:48:23.709Z,56.15
2023-03-17T00:50:51.377Z,56.09
2023-03-17T00:53:22.663Z,56.19
2023-03-17T00:55:50.396Z,56.54
2023-03-17T00:58:31.270Z,56.63
2023-03-17T01:00:59.400Z,56.68
2023-03-17T01:03:28.198Z,56.84
2023-03-17T01:05:57.366Z,56.93
2023-03-17T01:08:26.513Z,57.24
2023-03-17T01:10:54.382Z,57.14
2023-03-17T01:13:22.583Z,57.30
2023-03-17T01:15:51.536Z,57.38
2023-03-17T01:18:22.173Z,57.55
2023-03-17T01:20:52.767Z,57.79
2023-03-17T01:23:21.614Z,57.99
2023-03-17T01:25:49.684Z,58.17
2023-03-17T01:28:20.176Z,58.21
2023-03-17T01:30:48.734Z,58.34
2023-03-17T01:33:18.565Z,58.31
2023-03-17T01:35:46.638Z,58.29
2023-03-17T01:38:15.409Z,58.36
2023-03-17T01:40:50.400Z,58.34
2023-03-17T01:43:28.826Z,58.50
2023-03-17T01:46:26.890Z,58.54
2023-03-17T01:49:18.873Z,58.62
2023-03-17T01:52:09.514Z,58.66
2023-03-17T01:54:58.666Z,58.59
2023-03-17T01:57:45.199Z,58.68
2023-03-17T02:00:18.128Z,58.78
2023-03-17T02:02:53.526Z,58.83
2023-03-17T02:05:25.496Z,58.83
2023-03-17T02:07:55.177Z,58.71
2023-03-17T02:10:28.131Z,58.84
2023-03-17T02:13:01.780Z,58.85
2023-03-17T02:15:38.692Z,58.88
2023-03-17T02:18:07.041Z,58.89
2023-03-17T02:20:42.087Z,58.93
2023-03-17T02:23:10.289Z,58.90
2023-03-17T02:25:39.310Z,58.97
2023-03-17T02:28:18.548Z,59.13
2023-03-17T02:30:46.344Z,59.19
2023-03-17T02:33:16.076Z,59.24
2023-03-17T02:35:43.819Z,59.19
2023-03-17T02:38:12.881Z,59.18
2023-03-17T02:40:41.436Z,59.22
2023-03-17T02:43:15.171Z,58.88
2023-03-17T02:45:44.338Z,58.97
2023-03-17T02:48:22.586Z,58.91
2023-03-17T02:50:51.562Z,59.14
2023-03-17T02:53:21.826Z,59.27
2023-03-17T02:55:50.292Z,59.39
2023-03-17T02:58:19.164Z,59.35
2023-03-17T03:00:54.444Z,59.20
2023-03-17T03:03:23.316Z,59.29
2023-03-17T03:05:52.486Z,59.28
2023-03-17T03:08:21.507Z,59.35
2023-03-17T03:10:49.182Z,59.26
2023-03-17T03:13:16.960Z,59.31
2023-03-17T03:15:44.685Z,59.27
2023-03-17T03:18:12.616Z,59.26
2023-03-17T03:20:43.915Z,59.20
2023-03-17T03:23:13.233Z,59.14
2023-03-17T03:25:42.059Z,59.05
2023-03-17T03:28:10.065Z,59.06
2023-03-17T03:30:38.052Z,59.01
2023-03-17T03:33:06.275Z,58.84
2023-03-17T03:35:34.824Z,58.97
2023-03-17T03:38:03.019Z,59.13
2023-03-17T03:40:31.146Z,59.25
2023-03-17T03:42:59.191Z,59.11
2023-03-17T03:45:26.846Z,59.20
2023-03-17T03:47:55.042Z,59.23
2023-03-17T03:50:23.622Z,59.28
2023-03-17T03:52:51.414Z,59.24
2023-03-17T03:55:19.479Z,59.23
2023-03-17T03:57:47.295Z,59.09
2023-03-17T04:00:17.111Z,59.13
2023-03-17T04:02:46.204Z,59.20
2023-03-17T04:05:18.224Z,59.19
2023-03-17T04:07:47.499Z,59.34
2023-03-17T04:10:16.418Z,59.44
2023-03-17T04:12:44.191Z,59.48
2023-03-17T04:15:15.605Z,59.51
2023-03-17T04:17:44.223Z,59.51
2023-03-17T04:20:13.892Z,59.43
2023-03-17T04:22:42.493Z,59.42
2023-03-17T04:25:13.851Z,59.54
2023-03-17T04:27:42.755Z,59.53
2023-03-17T04:30:14.089Z,59.64
2023-03-17T04:32:41.846Z,59.60
2023-03-17T04:35:13.927Z,59.58
2023-03-17T04:37:41.970Z,59.57
2023-03-17T04:40:12.024Z,59.51
2023-03-17T04:42:40.212Z,59.61
2023-03-17T04:45:12.234Z,59.66
2023-03-17T04:47:40.144Z,59.75
2023-03-17T04:50:09.830Z,59.64
2023-03-17T04:52:38.311Z,59.47
2023-03-17T04:55:07.786Z,59.35
2023-03-17T04:57:36.673Z,59.45
2023-03-17T05:00:07.012Z,59.52
2023-03-17T05:02:34.876Z,59.50
2023-03-17T05:05:02.965Z,59.55
2023-03-17T05:07:32.821Z,59.60
2023-03-17T05:10:00.372Z,59.53
2023-03-17T05:12:28.290Z,59.52
2023-03-17T05:14:56.080Z,59.54
2023-03-17T05:17:23.763Z,59.56
2023-03-17T05:19:51.493Z,59.57
2023-03-17T05:22:19.254Z,59.59
2023-03-17T05:24:47.072Z,59.53
2023-03-17T05:27:15.045Z,59.48
2023-03-17T05:29:42.675Z,59.52
2023-03-17T05:32:10.299Z,59.50
2023-03-17T05:34:37.960Z,59.46
2023-03-17T05:37:07.116Z,59.46
2023-03-17T05:39:34.938Z,59.43
2023-03-17T05:42:02.867Z,59.42
2023-03-17T05:44:30.548Z,59.40
2023-03-17T05:46:59.358Z,59.36
2023-03-17T05:49:27.929Z,59.37
2023-03-17T05:51:55.941Z,59.14
2023-03-17T05:54:23.733Z,59.17
2023-03-17T05:56:51.839Z,58.96
2023-03-17T05:59:20.205Z,58.78
2023-03-17T06:01:47.973Z,58.82
2023-03-17T06:04:15.880Z,58.68
2023-03-17T06:06:43.496Z,58.54
2023-03-17T06:09:10.941Z,58.49
2023-03-17T06:11:38.564Z,58.36
2023-03-17T06:14:06.826Z,58.27
2023-03-17T06:16:34.393Z,58.23
2023-03-17T06:19:02.029Z,58.19
2023-03-17T06:21:29.730Z,57.99
2023-03-17T06:23:57.220Z,57.95
2023-03-17T06:26:26.682Z,57.59
2023-03-17T06:28:54.506Z,57.49
2023-03-17T06:31:22.970Z,57.25
2023-03-17T06:33:51.113Z,57.29
2023-03-17T06:36:18.844Z,57.02
2023-03-17T06:38:46.618Z,56.76
2023-03-17T06:41:14.491Z,56.50
2023-03-17T06:43:42.151Z,56.65
2023-03-17T06:46:10.045Z,56.43
2023-03-17T06:48:37.865Z,56.27
2023-03-17T06:51:06.692Z,56.25
2023-03-17T06:53:34.336Z,55.75
2023-03-17T06:56:04.354Z,55.55
2023-03-17T06:58:32.746Z,54.47
2023-03-17T07:01:00.496Z,54.48
2023-03-17T07:03:28.483Z,53.94
2023-03-17T07:05:56.200Z,52.91
2023-03-17T07:08:23.854Z,52.31
2023-03-17T07:10:56.971Z,52.23
2023-03-17T07:13:25.352Z,52.62
2023-03-17T07:15:55.363Z,52.33
2023-03-17T07:18:23.139Z,52.11
2023-03-17T07:20:50.772Z,51.00
2023-03-17T07:23:23.291Z,50.78
2023-03-17T07:25:52.121Z,49.58
2023-03-17T07:28:21.254Z,49.32
2023-03-17T07:30:49.654Z,47.73
2023-03-17T07:33:20.477Z,48.28
2023-03-17T07:35:49.395Z,47.78
2023-03-17T07:38:18.612Z,47.15
2023-03-17T07:40:48.679Z,46.46
2023-03-17T07:43:17.164Z,46.45
2023-03-17T07:45:46.547Z,44.78
2023-03-17T07:48:14.217Z,41.89
2023-03-17T07:50:42.553Z,42.16
2023-03-17T07:53:10.420Z,41.94
2023-03-17T07:55:38.391Z,42.77
2023-03-17T07:58:07.049Z,42.58
2023-03-17T08:00:35.399Z,42.52
2023-03-17T08:03:10.441Z,42.50
2023-03-17T08:05:34.022Z,42.91
2023-03-17T08:08:01.732Z,43.34
2023-03-17T08:10:29.957Z,41.11
2023-03-17T08:12:58.221Z,42.20
2023-03-17T08:15:26.028Z,40.65
2023-03-17T08:17:53.774Z,41.60
2023-03-17T08:20:21.590Z,41.24
2023-03-17T08:22:49.208Z,40.70
2023-03-17T08:25:17.293Z,40.76
2023-03-17T08:27:44.976Z,41.31
2023-03-17T08:30:14.105Z,41.21
2023-03-17T08:32:42.520Z,40.62
2023-03-17T08:35:15.665Z,40.85
2023-03-17T08:37:44.249Z,40.96
2023-03-17T08:40:17.413Z,38.42
2023-03-17T08:42:47.342Z,38.01
2023-03-17T08:45:17.675Z,37.80
2023-03-17T08:47:47.061Z,37.01
2023-03-17T08:50:21.944Z,34.21
2023-03-17T08:52:51.662Z,34.82
2023-03-17T08:55:19.564Z,34.50
2023-03-17T08:57:48.143Z,35.41
2023-03-17T09:00:19.865Z,32.64
2023-03-17T09:02:49.351Z,32.11
2023-03-17T09:05:18.945Z,33.88
2023-03-17T09:07:49.103Z,35.60
2023-03-17T09:10:18.832Z,33.02
2023-03-17T09:12:46.975Z,29.40
2023-03-17T09:15:15.040Z,31.42
2023-03-17T09:17:43.644Z,32.29
2023-03-17T09:20:13.252Z,31.53
2023-03-17T09:22:40.959Z,33.27
2023-03-17T09:25:09.423Z,31.61
2023-03-17T09:27:37.091Z,29.73
2023-03-17T09:30:06.193Z,28.82
2023-03-17T09:32:33.960Z,32.68
2023-03-17T09:35:01.993Z,32.45
2023-03-17T09:37:30.591Z,33.31
2023-03-17T09:39:58.261Z,33.53
2023-03-17T09:42:43.288Z,33.88
2023-03-17T09:45:21.982Z,31.82
2023-03-17T09:48:09.757Z,33.67
2023-03-17T09:50:51.605Z,30.72
2023-03-17T09:53:31.973Z,27.91
2023-03-17T09:56:04.431Z,28.57
2023-03-17T09:58:33.984Z,30.92
2023-03-17T10:01:04.863Z,30.83
2023-03-17T10:03:34.343Z,28.82
2023-03-17T10:06:25.616Z,30.73
2023-03-17T10:09:27.051Z,31.58
2023-03-17T10:12:12.001Z,30.66
2023-03-17T10:15:06.451Z,31.84
2023-03-17T10:17:40.953Z,32.84
2023-03-17T10:20:20.537Z,31.19
2023-03-17T10:23:01.272Z,31.74
2023-03-17T10:25:33.542Z,30.95
2023-03-17T10:28:13.991Z,31.42
2023-03-17T10:30:43.422Z,29.86
2023-03-17T10:33:12.065Z,29.65
2023-03-17T10:35:40.031Z,29.74
2023-03-17T10:38:23.041Z,30.15
2023-03-17T10:41:02.623Z,29.40
2023-03-17T10:43:41.532Z,29.89
2023-03-17T10:46:23.899Z,28.65
2023-03-17T10:48:57.842Z,29.16
2023-03-17T10:51:31.426Z,29.96
2023-03-17T10:54:09.370Z,29.88
2023-03-17T10:56:41.759Z,28.92
2023-03-17T11:02:00.947Z,29.51
2023-03-17T11:04:39.269Z,29.96
2023-03-17T11:07:16.912Z,28.77
2023-03-17T11:09:50.198Z,30.62
2023-03-17T11:12:38.069Z,31.47
2023-03-17T11:15:16.138Z,31.53
2023-03-17T11:18:01.152Z,31.76
2023-03-17T11:20:49.588Z,31.41
2023-03-17T11:23:43.820Z,28.85
2023-03-17T11:26:58.582Z,30.03
2023-03-17T11:30:00.730Z,30.71
2023-03-17T11:32:41.019Z,31.12
2023-03-17T11:35:31.005Z,30.34
2023-03-17T11:38:24.537Z,29.36
2023-03-17T11:41:16.722Z,28.58
2023-03-17T11:44:22.203Z,27.96
2023-03-17T11:47:01.477Z,29.96
2023-03-17T11:49:38.384Z,29.42
2023-03-17T11:52:21.473Z,30.29
2023-03-17T11:55:27.542Z,30.04
2023-03-17T11:58:11.011Z,31.01
2023-03-17T12:00:52.215Z,30.67
2023-03-17T12:03:38.421Z,29.81
2023-03-17T12:06:15.077Z,27.87
2023-03-17T12:09:00.062Z,29.58
2023-03-17T12:11:31.328Z,29.85
2023-03-17T12:14:07.347Z,29.77
2023-03-17T12:16:49.578Z,29.31
2023-03-17T12:19:27.915Z,30.16
2023-03-17T12:22:10.276Z,29.16
2023-03-17T12:24:50.037Z,29.77
2023-03-17T12:27:29.394Z,29.67
2023-03-17T12:30:06.011Z,27.58
2023-03-17T12:32:45.493Z,28.97
2023-03-17T12:35:28.659Z,28.64
2023-03-17T12:38:00.824Z,30.09
2023-03-17T12:40:45.925Z,29.14
2023-03-17T12:43:36.766Z,29.56
2023-03-17T12:46:37.405Z,29.12
2023-03-17T12:49:28.489Z,28.01
2023-03-17T12:52:31.547Z,28.41
2023-03-17T12:55:03.428Z,27.39
2023-03-17T12:57:41.295Z,28.96
2023-03-17T13:00:29.186Z,28.91
2023-03-17T13:03:17.126Z,27.49
2023-03-17T13:05:52.389Z,28.43
2023-03-17T13:08:37.552Z,28.17
2023-03-17T13:11:40.320Z,28.06
2023-03-17T13:14:35.704Z,28.30
2023-03-17T13:17:19.803Z,28.54
2023-03-17T13:20:11.445Z,28.33
2023-03-17T13:22:43.870Z,29.45
2023-03-17T13:25:40.956Z,29.25
2023-03-17T13:28:16.889Z,27.49
2023-03-17T13:31:20.569Z,27.17
2023-03-17T13:33:52.740Z,27.73
2023-03-17T13:36:59.889Z,28.08
2023-03-17T13:39:59.017Z,27.62
2023-03-17T13:42:35.082Z,27.54
2023-03-17T13:45:38.053Z,25.88
2023-03-17T13:48:37.735Z,26.48
2023-03-17T13:51:15.238Z,27.51
2023-03-17T13:53:56.922Z,26.35
2023-03-17T13:56:45.091Z,27.55
2023-03-17T13:59:21.485Z,27.26
2023-03-17T14:02:03.996Z,27.50
2023-03-17T14:04:44.251Z,28.00
2023-03-17T14:07:16.743Z,26.71
2023-03-17T14:09:44.986Z,27.56
2023-03-17T14:12:30.032Z,27.42
2023-03-17T14:15:18.421Z,27.27
2023-03-17T14:17:51.812Z,27.43
2023-03-17T14:20:23.767Z,27.15
2023-03-17T14:23:01.478Z,27.15
2023-03-17T14:25:36.665Z,27.21
2023-03-17T14:28:11.446Z,27.25
2023-03-17T14:30:39.228Z,27.92
2023-03-17T14:33:23.187Z,27.83
2023-03-17T14:35:52.460Z,27.25
2023-03-17T14:38:31.202Z,27.95
2023-03-17T14:41:06.530Z,28.49
2023-03-17T14:43:36.144Z,27.89
2023-03-17T14:46:07.587Z,28.22
2023-03-17T14:48:39.022Z,28.53
2023-03-17T14:51:11.799Z,27.46
2023-03-17T14:53:42.768Z,28.16
2023-03-17T14:56:10.908Z,26.73
2023-03-17T14:58:44.544Z,28.28
2023-03-17T15:01:19.662Z,28.55
2023-03-17T15:04:18.386Z,28.52
2023-03-17T15:06:59.587Z,28.39
2023-03-17T15:09:38.001Z,27.73
2023-03-17T15:12:26.206Z,28.88
2023-03-17T15:14:58.267Z,28.70
2023-03-17T15:17:33.094Z,29.12
2023-03-17T15:20:13.042Z,29.58
2023-03-17T15:22:47.959Z,28.81
2023-03-17T15:25:33.456Z,28.92
2023-03-17T15:28:01.336Z,29.72
2023-03-17T15:30:37.371Z,28.25
2023-03-17T15:33:02.761Z,28.64
2023-03-17T15:35:31.687Z,28.95
2023-03-17T15:37:59.340Z,29.25
2023-03-17T15:40:27.069Z,29.19
2023-03-17T15:42:54.638Z,29.49
2023-03-17T15:45:22.286Z,29.36
2023-03-17T15:47:49.957Z,28.73
2023-03-17T15:50:26.001Z,28.93
2023-03-17T15:52:55.433Z,29.68
2023-03-17T15:55:30.635Z,29.76
2023-03-17T15:58:00.154Z,29.77
2023-03-17T16:00:29.094Z,30.20
2023-03-17T16:03:02.172Z,30.27
2023-03-17T16:05:33.613Z,30.58
2023-03-17T16:08:01.788Z,31.49
2023-03-17T16:10:32.212Z,31.47
2023-03-17T16:13:00.088Z,31.79
2023-03-17T16:15:31.831Z,31.97
2023-03-17T16:18:03.623Z,31.71
2023-03-17T16:20:44.836Z,31.94
2023-03-17T16:23:16.827Z,32.36
2023-03-17T16:25:45.579Z,32.43
2023-03-17T16:28:23.938Z,32.65
2023-03-17T16:30:54.156Z,32.61
2023-03-17T16:33:32.774Z,32.89
2023-03-17T16:36:01.007Z,32.96
2023-03-17T16:38:32.308Z,33.18
2023-03-17T16:41:07.271Z,33.38
2023-03-17T16:43:38.124Z,33.46
2023-03-17T16:46:07.214Z,33.88
2023-03-17T16:48:35.256Z,34.21
2023-03-17T16:51:04.100Z,34.12
2023-03-17T16:53:31.648Z,34.14
2023-03-17T16:55:59.762Z,34.43
2023-03-17T16:58:36.272Z,34.85
2023-03-17T17:01:14.840Z,35.29
2023-03-17T17:03:44.081Z,35.36
2023-03-17T17:06:16.428Z,36.01
2023-03-17T17:08:45.747Z,37.38
2023-03-17T17:11:15.300Z,37.98
2023-03-17T17:13:46.396Z,38.84
2023-03-17T17:16:28.318Z,38.93
2023-03-17T17:18:56.786Z,39.49
2023-03-17T17:21:25.790Z,39.76
2023-03-17T17:23:53.757Z,40.16
2023-03-17T17:26:22.456Z,40.43
2023-03-17T17:28:50.558Z,40.85
2023-03-17T17:31:18.320Z,40.96
2023-03-17T17:33:46.134Z,41.08
2023-03-17T17:36:16.292Z,41.31
2023-03-17T17:38:45.903Z,41.64
2023-03-17T17:41:15.967Z,41.82
2023-03-17T17:43:45.706Z,42.08
2023-03-17T17:46:18.922Z,42.05
2023-03-17T17:48:47.811Z,42.77
2023-03-17T17:51:16.038Z,43.10
2023-03-17T17:53:44.189Z,43.11
2023-03-17T17:56:17.219Z,43.16
2023-03-17T17:58:45.288Z,42.90
2023-03-17T18:01:15.217Z,43.09
2023-03-17T18:03:43.097Z,43.17
2023-03-17T18:06:12.644Z,43.28
2023-03-17T18:08:42.844Z,43.55
2023-03-17T18:11:11.429Z,44.00
2023-03-17T18:13:39.692Z,44.19
2023-03-17T18:16:09.439Z,44.60
2023-03-17T18:18:38.968Z,44.80
2023-03-17T18:21:07.706Z,45.07
2023-03-17T18:23:36.175Z,45.20
2023-03-17T18:26:05.729Z,45.23
2023-03-17T18:28:33.495Z,44.98
2023-03-17T18:31:10.106Z,44.84
2023-03-17T18:33:40.364Z,44.85
2023-03-17T18:36:08.945Z,45.24
2023-03-17T18:38:37.522Z,45.37
2023-03-17T18:41:07.657Z,45.22
2023-03-17T18:43:35.515Z,45.12
2023-03-17T18:46:03.779Z,45.11
2023-03-17T18:48:31.577Z,45.19
2023-03-17T18:50:59.107Z,45.36
2023-03-17T18:53:27.325Z,45.40
2023-03-17T18:55:56.908Z,45.39
2023-03-17T18:58:25.105Z,45.34
2023-03-17T19:01:01.342Z,45.48
2023-03-17T19:03:31.599Z,46.02
2023-03-17T19:06:10.291Z,45.99
2023-03-17T19:08:38.149Z,46.20
2023-03-17T19:11:11.647Z,46.42
2023-03-17T19:13:39.591Z,46.75
2023-03-17T19:16:08.952Z,46.92
2023-03-17T19:18:40.272Z,47.05
2023-03-17T19:21:09.182Z,47.22
2023-03-17T19:23:37.863Z,47.16
2023-03-17T19:26:07.068Z,47.32
2023-03-17T19:28:34.765Z,47.43
2023-03-17T19:31:02.345Z,47.51
2023-03-17T19:33:31.884Z,47.53
2023-03-17T19:36:01.955Z,47.88
2023-03-17T19:38:29.845Z,47.78
2023-03-17T19:40:57.774Z,47.75
2023-03-17T19:43:39.350Z,48.01
2023-03-17T19:45:56.919Z,48.02
2023-03-17T19:48:24.885Z,48.30
2023-03-17T19:50:52.668Z,48.37
2023-03-17T19:53:20.446Z,48.68
2023-03-17T19:55:48.258Z,48.83
2023-03-17T19:58:17.066Z,48.95
2023-03-17T20:00:45.185Z,49.06
2023-03-17T20:03:14.439Z,49.15
2023-03-17T20:05:44.719Z,49.15
2023-03-17T20:08:14.017Z,49.22
2023-03-17T20:10:41.832Z,49.43
2023-03-17T20:13:09.887Z,49.37
2023-03-17T20:15:37.879Z,49.46
2023-03-17T20:18:05.671Z,49.15
2023-03-17T20:20:33.722Z,49.02
2023-03-17T20:23:01.663Z,49.03
2023-03-17T20:25:29.410Z,48.90
2023-03-17T20:27:57.133Z,48.88
2023-03-17T20:30:24.902Z,48.70
2023-03-17T20:32:52.436Z,48.48
2023-03-17T20:35:20.395Z,48.38
2023-03-17T20:37:47.929Z,48.44
2023-03-17T20:40:15.663Z,48.53
2023-03-17T20:42:43.838Z,48.55
2023-03-17T20:45:11.470Z,48.50
2023-03-17T20:47:40.586Z,48.28
2023-03-17T20:50:09.748Z,48.02
2023-03-17T20:52:37.652Z,47.70
2023-03-17T20:55:07.914Z,47.60
2023-03-17T20:57:36.289Z,47.23
2023-03-17T21:00:05.012Z,46.92
2023-03-17T21:02:32.669Z,46.71
2023-03-17T21:05:00.440Z,46.47
2023-03-17T21:07:28.115Z,46.07
2023-03-17T21:09:56.235Z,45.80
2023-03-17T21:12:24.174Z,45.59
2023-03-17T21:14:52.861Z,45.59
2023-03-17T21:17:22.264Z,45.40
2023-03-17T21:19:50.400Z,45.11
2023-03-17T21:22:18.130Z,45.04
2023-03-17T21:24:46.119Z,45.01
2023-03-17T21:27:13.854Z,44.82
2023-03-17T21:29:41.532Z,44.71
2023-03-17T21:32:09.873Z,44.69
2023-03-17T21:34:37.871Z,44.56
2023-03-17T21:37:05.787Z,44.45
2023-03-17T21:39:33.600Z,44.39
2023-03-17T21:42:01.598Z,44.34
2023-03-17T21:44:29.604Z,44.45
2023-03-17T21:46:57.481Z,44.74
2023-03-17T21:49:25.493Z,44.57
2023-03-17T21:51:54.295Z,44.32
2023-03-17T21:54:22.165Z,44.75
2023-03-17T21:56:50.529Z,45.03
2023-03-17T21:59:20.178Z,44.83
2023-03-17T22:01:49.990Z,44.73
2023-03-17T22:04:17.790Z,44.89
2023-03-17T22:06:45.779Z,44.99
2023-03-17T22:09:19.076Z,44.86
2023-03-17T22:11:46.274Z,44.76
2023-03-17T22:14:15.957Z,44.54
2023-03-17T22:16:43.668Z,44.61
2023-03-17T22:19:12.103Z,44.30
2023-03-17T22:21:40.165Z,44.33
2023-03-17T22:24:08.645Z,44.38
2023-03-17T22:26:36.435Z,44.61
2023-03-17T22:29:04.539Z,44.55
2023-03-17T22:31:32.323Z,44.71
2023-03-17T22:34:00.650Z,44.88
2023-03-17T22:36:29.742Z,44.80
2023-03-17T22:38:58.101Z,44.76
2023-03-17T22:41:29.167Z,44.78
2023-03-17T22:43:57.823Z,44.77
2023-03-17T22:46:25.507Z,44.79
2023-03-17T22:48:53.450Z,44.91
2023-03-17T22:51:26.023Z,44.99
2023-03-17T22:53:54.278Z,45.03
2023-03-17T22:56:22.312Z,44.97
2023-03-17T22:58:49.743Z,44.94
2023-03-17T23:01:19.790Z,44.79
2023-03-17T23:03:47.876Z,44.86
2023-03-17T23:06:15.663Z,44.82
2023-03-17T23:08:45.287Z,44.78
2023-03-17T23:11:21.760Z,44.66
2023-03-17T23:13:50.923Z,44.63
2023-03-17T23:16:19.816Z,44.58
2023-03-17T23:18:47.988Z,44.29
2023-03-17T23:21:29.314Z,44.31
2023-03-17T23:23:57.744Z,44.29
2023-03-17T23:26:25.373Z,44.30
2023-03-17T23:28:53.560Z,44.51
2023-03-17T23:31:22.046Z,44.40
2023-03-17T23:33:50.786Z,44.57
2023-03-17T23:36:19.065Z,44.61
2023-03-17T23:38:48.207Z,44.81
2023-03-17T23:41:16.971Z,45.07
2023-03-17T23:43:46.290Z,45.31
2023-03-17T23:46:14.223Z,45.39
2023-03-17T23:48:43.066Z,45.69
2023-03-17T23:51:13.746Z,45.74
2023-03-17T23:53:41.761Z,45.74
2023-03-17T23:56:12.517Z,45.82
2023-03-17T23:58:42.737Z,45.79
